Time;durP1;ratioP1;P1;durP2;ratioP2;P2;SDS_P1;SDS_P2;PMS_P1;PMS_P2;Temp;Humidity;BMP_temperature;BMP_pressure;BME280_temperature;BME280_humidity;BME280_pressure;Samples;Min_cycle;Max_cycle;Signal;HPM_P1;HPM_P2
2020/12/30 00:00:46;;;;;;;3.28;1.70;;;20.30;46.10;;;;;;5016975;28;20046;-48
2020/12/30 00:03:11;;;;;;;2.72;1.60;;;20.30;46.20;;;;;;5017213;28;20104;-49
2020/12/30 00:05:37;;;;;;;2.03;1.50;;;20.30;46.80;;;;;;5016456;28;20032;-51
2020/12/30 00:08:05;;;;;;;1.90;1.45;;;20.30;46.20;;;;;;5017001;28;20085;-45
2020/12/30 00:10:30;;;;;;;1.60;1.50;;;20.20;46.10;;;;;;5016460;28;20103;-46
2020/12/30 00:12:56;;;;;;;4.63;1.80;;;20.20;46.20;;;;;;5016831;28;20112;-46
2020/12/30 00:15:21;;;;;;;3.72;1.95;;;20.20;46.20;;;;;;5016856;28;20108;-45
2020/12/30 00:17:47;;;;;;;1.73;1.48;;;20.20;46.20;;;;;;5016740;28;20036;-45
2020/12/30 00:20:16;;;;;;;1.52;1.35;;;20.10;46.10;;;;;;5016129;28;20040;-46
2020/12/30 00:22:42;;;;;;;1.90;1.50;;;20.10;46.20;;;;;;5016309;28;20026;-48
2020/12/30 00:25:08;;;;;;;2.40;1.63;;;20.10;46.10;;;;;;5016531;28;20029;-46
2020/12/30 00:27:36;;;;;;;1.90;1.55;;;20.10;46.10;;;;;;5016100;28;20025;-45
2020/12/30 00:30:14;;;;;;;2.33;1.63;;;20.10;46.10;;;;;;5016155;28;20121;-46
2020/12/30 00:32:41;;;;;;;3.17;2.15;;;20.00;46.10;;;;;;5016288;28;20467;-47
2020/12/30 00:35:07;;;;;;;1.73;1.42;;;20.00;46.10;;;;;;5016692;28;20076;-45
2020/12/30 00:37:33;;;;;;;2.45;1.80;;;20.00;46.10;;;;;;5016584;28;20030;-47
2020/12/30 00:39:58;;;;;;;2.17;1.85;;;20.00;46.10;;;;;;5016776;28;20387;-46
2020/12/30 00:42:29;;;;;;;2.88;1.50;;;20.00;46.10;;;;;;5016339;28;20037;-46
2020/12/30 00:44:54;;;;;;;1.92;1.70;;;19.90;46.10;;;;;;5016485;28;20444;-45
2020/12/30 00:47:19;;;;;;;3.05;1.60;;;20.00;46.20;;;;;;5015902;28;20101;-45
2020/12/30 00:49:45;;;;;;;2.10;1.70;;;19.90;46.10;;;;;;5016022;28;20038;-45
2020/12/30 00:52:13;;;;;;;1.75;1.58;;;19.90;46.10;;;;;;5016166;28;20069;-45
2020/12/30 00:54:38;;;;;;;3.92;1.63;;;19.90;46.10;;;;;;5016574;28;20030;-46
2020/12/30 00:57:04;;;;;;;1.88;1.50;;;19.90;46.10;;;;;;5016474;28;20440;-46
2020/12/30 00:59:29;;;;;;;1.63;1.52;;;19.90;46.10;;;;;;5015576;28;20025;-49
2020/12/30 01:01:54;;;;;;;2.05;1.60;;;19.80;46.10;;;;;;5015578;28;20022;-47
2020/12/30 01:04:21;;;;;;;2.03;1.58;;;19.80;46.10;;;;;;5015895;28;20352;-47
2020/12/30 01:06:51;;;;;;;3.83;1.98;;;19.80;46.10;;;;;;5016119;28;20025;-46
2020/12/30 01:09:17;;;;;;;1.63;1.52;;;19.80;46.10;;;;;;5015800;28;20034;-44
2020/12/30 01:11:43;;;;;;;3.17;1.58;;;19.80;46.10;;;;;;5015443;28;20033;-44
2020/12/30 01:14:09;;;;;;;2.22;1.90;;;19.80;46.10;;;;;;5015804;28;20176;-44
2020/12/30 01:16:35;;;;;;;4.63;1.75;;;19.70;46.00;;;;;;5015827;28;20403;-46
2020/12/30 01:19:00;;;;;;;1.95;1.75;;;19.70;46.10;;;;;;5015727;28;20049;-45
2020/12/30 01:21:26;;;;;;;2.10;1.90;;;19.70;46.70;;;;;;5015719;28;20441;-45
2020/12/30 01:23:51;;;;;;;2.50;1.95;;;19.70;46.00;;;;;;5015355;28;20068;-45
2020/12/30 01:26:17;;;;;;;2.67;2.10;;;19.70;46.00;;;;;;5015549;28;20038;-45
2020/12/30 01:28:42;;;;;;;1.75;1.52;;;19.70;46.00;;;;;;5015175;28;20053;-45
2020/12/30 01:31:08;;;;;;;2.40;1.83;;;19.70;46.10;;;;;;5015743;28;20022;-45
2020/12/30 01:33:33;;;;;;;1.60;1.50;;;19.60;46.00;;;;;;5015578;28;20429;-47
2020/12/30 01:35:59;;;;;;;2.30;1.73;;;19.60;46.00;;;;;;5015581;28;20109;-45
2020/12/30 01:38:24;;;;;;;3.10;1.83;;;19.60;46.00;;;;;;5015584;28;20368;-45
2020/12/30 01:40:54;;;;;;;5.20;2.25;;;19.60;46.00;;;;;;5015198;28;20041;-45
2020/12/30 01:43:20;;;;;;;2.42;1.77;;;19.60;46.00;;;;;;5015695;28;20088;-46
2020/12/30 01:45:45;;;;;;;2.30;1.83;;;19.60;46.00;;;;;;5015208;28;20034;-46
2020/12/30 01:48:16;;;;;;;1.80;1.70;;;19.50;46.00;;;;;;5015222;28;20033;-45
2020/12/30 01:50:42;;;;;;;3.10;2.05;;;19.50;46.00;;;;;;5015584;28;20045;-45
2020/12/30 01:53:08;;;;;;;2.72;1.98;;;19.50;46.00;;;;;;5015002;28;20061;-45
2020/12/30 01:55:38;;;;;;;2.17;1.60;;;19.50;46.00;;;;;;5015484;28;20101;-46
2020/12/30 01:58:04;;;;;;;1.92;1.60;;;19.50;46.00;;;;;;5014963;28;20022;-45
2020/12/30 02:00:29;;;;;;;4.47;1.83;;;19.50;46.00;;;;;;5014992;28;20030;-46
2020/12/30 02:03:00;;;;;;;3.67;1.95;;;19.50;46.00;;;;;;5015073;28;20087;-46
2020/12/30 02:05:34;;;;;;;2.22;1.80;;;19.40;45.90;;;;;;5015135;28;20445;-45
2020/12/30 02:08:01;;;;;;;2.90;2.20;;;19.40;46.00;;;;;;5015233;28;20021;-46
2020/12/30 02:10:27;;;;;;;3.60;1.90;;;19.40;46.00;;;;;;5014645;28;20400;-47
2020/12/30 02:12:54;;;;;;;2.67;1.90;;;19.40;46.00;;;;;;5014992;28;20065;-49
2020/12/30 02:15:31;;;;;;;1.70;1.60;;;19.30;46.00;;;;;;5014776;28;20091;-45
2020/12/30 02:17:57;;;;;;;1.65;1.50;;;19.40;46.00;;;;;;5015087;28;20022;-46
2020/12/30 02:20:23;;;;;;;2.25;1.85;;;19.40;46.00;;;;;;5015016;28;20061;-49
2020/12/30 02:22:59;;;;;;;2.08;1.88;;;19.40;46.00;;;;;;5018016;28;20381;-46
2020/12/30 02:25:24;;;;;;;2.20;1.60;;;19.30;45.90;;;;;;5018835;28;20028;-48
2020/12/30 02:27:50;;;;;;;2.30;2.10;;;19.30;46.00;;;;;;5019000;28;20113;-46
2020/12/30 02:30:18;;;;;;;1.92;1.70;;;19.30;45.90;;;;;;5018828;28;20044;-46
2020/12/30 02:32:44;;;;;;;2.70;1.85;;;19.30;46.00;;;;;;5018925;28;20028;-45
2020/12/30 02:35:09;;;;;;;2.25;1.90;;;19.30;46.00;;;;;;5018623;28;20025;-49
2020/12/30 02:37:35;;;;;;;2.35;1.80;;;19.30;45.90;;;;;;5018667;28;20029;-47
2020/12/30 02:40:00;;;;;;;2.08;1.88;;;19.20;45.90;;;;;;5018571;28;20033;-46
2020/12/30 02:42:27;;;;;;;1.90;1.67;;;19.20;45.90;;;;;;5018427;28;20091;-46
2020/12/30 02:44:59;;;;;;;2.25;2.00;;;19.30;45.90;;;;;;5018478;28;20436;-47
2020/12/30 02:47:24;;;;;;;2.35;2.08;;;19.20;45.90;;;;;;5018472;28;20432;-47
2020/12/30 02:49:50;;;;;;;1.67;1.58;;;19.20;45.90;;;;;;5018384;28;20026;-45
2020/12/30 02:52:15;;;;;;;2.15;1.63;;;19.20;45.90;;;;;;5018045;28;20041;-44
2020/12/30 02:54:41;;;;;;;1.83;1.73;;;19.20;45.90;;;;;;5018389;28;20068;-45
2020/12/30 02:57:06;;;;;;;2.00;1.80;;;19.20;45.90;;;;;;5018380;28;20467;-45
2020/12/30 02:59:31;;;;;;;2.75;1.65;;;19.20;45.90;;;;;;5017905;28;20038;-44
2020/12/30 03:01:57;;;;;;;2.15;1.90;;;19.10;45.80;;;;;;5018197;28;20026;-44
2020/12/30 03:04:22;;;;;;;2.25;1.70;;;19.10;45.80;;;;;;5018311;28;20053;-45
2020/12/30 03:06:48;;;;;;;4.05;2.10;;;19.10;45.80;;;;;;5018245;28;20026;-45
2020/12/30 03:09:13;;;;;;;3.75;1.85;;;19.10;45.80;;;;;;5017991;28;20432;-45
2020/12/30 03:11:39;;;;;;;2.03;1.60;;;19.10;45.90;;;;;;5018352;28;20026;-46
2020/12/30 03:14:04;;;;;;;2.42;2.08;;;19.10;45.90;;;;;;5017949;28;20038;-45
2020/12/30 03:16:30;;;;;;;1.77;1.67;;;19.10;45.80;;;;;;5018083;28;20030;-44
2020/12/30 03:18:55;;;;;;;2.17;1.98;;;19.10;45.80;;;;;;5017843;28;20022;-46
2020/12/30 03:21:21;;;;;;;2.08;1.90;;;19.10;45.90;;;;;;5018031;28;20030;-45
2020/12/30 03:23:46;;;;;;;2.55;1.77;;;19.10;45.80;;;;;;5018138;28;20022;-44
2020/12/30 03:26:12;;;;;;;2.10;1.85;;;19.00;45.80;;;;;;5018004;28;20036;-48
2020/12/30 03:28:37;;;;;;;2.05;1.70;;;19.00;45.80;;;;;;5017888;28;20416;-44
2020/12/30 03:31:03;;;;;;;1.90;1.70;;;19.00;45.80;;;;;;5017690;28;20038;-46
2020/12/30 03:33:28;;;;;;;1.75;1.65;;;19.00;45.80;;;;;;5016865;28;20336;-46
2020/12/30 03:35:54;;;;;;;2.80;2.03;;;19.00;45.80;;;;;;5017850;28;20026;-45
2020/12/30 03:38:19;;;;;;;2.00;1.90;;;19.00;45.80;;;;;;5017798;28;20032;-44
2020/12/30 03:40:45;;;;;;;2.45;1.92;;;19.00;45.80;;;;;;5017085;28;20037;-46
2020/12/30 03:43:10;;;;;;;2.67;2.08;;;18.90;45.80;;;;;;5017561;28;20026;-45
2020/12/30 03:45:36;;;;;;;2.47;1.77;;;19.00;45.80;;;;;;5017047;28;20100;-46
2020/12/30 03:48:01;;;;;;;2.38;2.00;;;18.90;45.80;;;;;;5017519;28;20061;-47
2020/12/30 03:50:27;;;;;;;1.90;1.70;;;18.90;45.80;;;;;;5017732;28;20121;-45
2020/12/30 03:52:52;;;;;;;2.55;2.20;;;18.90;45.70;;;;;;5017489;28;20397;-45
2020/12/30 03:55:18;;;;;;;4.63;1.92;;;18.90;45.80;;;;;;5016773;28;20021;-44
2020/12/30 03:57:43;;;;;;;2.13;1.70;;;18.90;45.80;;;;;;5017277;28;20344;-45
2020/12/30 04:00:09;;;;;;;2.90;2.00;;;18.90;45.80;;;;;;5017305;28;20432;-46
2020/12/30 04:02:34;;;;;;;3.67;2.17;;;18.90;45.80;;;;;;5016947;28;20109;-45
2020/12/30 04:05:00;;;;;;;3.17;2.25;;;18.90;45.80;;;;;;5016761;28;20105;-45
2020/12/30 04:07:25;;;;;;;2.45;2.10;;;18.90;45.80;;;;;;5016825;28;20389;-47
2020/12/30 04:09:51;;;;;;;2.28;1.98;;;18.90;45.80;;;;;;5016747;28;20099;-44
2020/12/30 04:12:16;;;;;;;2.17;1.80;;;18.90;45.80;;;;;;5016986;28;20360;-45
2020/12/30 04:14:42;;;;;;;2.17;1.77;;;18.90;45.80;;;;;;5016787;28;20030;-49
2020/12/30 04:17:07;;;;;;;1.63;1.52;;;18.80;45.80;;;;;;5016848;28;20033;-47
2020/12/30 04:19:33;;;;;;;2.10;1.90;;;18.80;45.80;;;;;;5016899;28;20033;-45
2020/12/30 04:21:58;;;;;;;2.35;2.15;;;18.80;45.80;;;;;;5016954;28;20467;-45
2020/12/30 04:24:24;;;;;;;1.92;1.73;;;18.80;45.80;;;;;;5016889;28;20025;-45
2020/12/30 04:26:49;;;;;;;2.10;1.90;;;18.80;45.80;;;;;;5016664;28;20033;-45
2020/12/30 04:29:15;;;;;;;2.00;1.80;;;18.80;45.80;;;;;;5016439;28;20034;-46
2020/12/30 04:31:40;;;;;;;1.85;1.73;;;18.80;45.80;;;;;;5016157;28;20448;-47
2020/12/30 04:34:06;;;;;;;2.58;1.73;;;18.70;45.80;;;;;;5016474;28;20033;-45
2020/12/30 04:36:32;;;;;;;2.38;2.00;;;18.70;45.80;;;;;;5016492;28;20088;-45
2020/12/30 04:38:57;;;;;;;2.20;1.70;;;18.80;45.80;;;;;;5016262;28;20060;-45
2020/12/30 04:41:35;;;;;;;2.65;2.00;;;18.80;45.80;;;;;;5016399;28;20038;-45
2020/12/30 04:44:05;;;;;;;3.15;1.92;;;18.70;45.80;;;;;;5016345;28;20445;-44
2020/12/30 04:46:30;;;;;;;1.88;1.70;;;18.70;45.80;;;;;;5016478;28;20026;-45
2020/12/30 04:48:57;;;;;;;2.45;2.13;;;18.70;45.80;;;;;;5016212;28;20452;-45
2020/12/30 04:51:27;;;;;;;3.78;1.77;;;18.70;45.80;;;;;;5016220;28;20028;-45
2020/12/30 04:53:57;;;;;;;2.28;2.08;;;18.70;45.80;;;;;;5014628;28;20357;-46
2020/12/30 04:56:40;;;;;;;2.10;1.77;;;18.70;45.80;;;;;;5016136;28;20440;-46
2020/12/30 04:59:10;;;;;;;3.25;1.90;;;18.70;45.80;;;;;;5016458;28;20026;-46
2020/12/30 05:01:59;;;;;;;2.90;2.10;;;18.70;45.80;;;;;;5015756;28;20101;-45
2020/12/30 05:04:25;;;;;;;2.58;2.08;;;18.70;45.80;;;;;;5016476;28;20026;-45
2020/12/30 05:06:51;;;;;;;3.05;2.35;;;18.60;45.80;;;;;;5015972;28;20074;-44
2020/12/30 05:09:20;;;;;;;2.78;2.03;;;18.60;45.80;;;;;;5015888;28;20058;-44
2020/12/30 05:11:46;;;;;;;1.80;1.70;;;18.60;45.80;;;;;;5015925;28;20105;-45
2020/12/30 05:14:12;;;;;;;2.08;1.88;;;18.60;45.80;;;;;;5015799;28;20424;-47
2020/12/30 05:16:37;;;;;;;2.20;1.90;;;18.60;45.80;;;;;;5015472;28;20068;-46
2020/12/30 05:19:04;;;;;;;2.25;2.00;;;18.60;45.80;;;;;;5015665;28;20348;-45
2020/12/30 05:21:30;;;;;;;1.85;1.75;;;18.60;45.80;;;;;;5015775;28;20018;-46
2020/12/30 05:23:57;;;;;;;2.83;1.80;;;18.60;45.80;;;;;;5016092;28;20022;-44
2020/12/30 05:26:24;;;;;;;2.15;2.03;;;18.50;45.70;;;;;;5015619;28;20022;-45
2020/12/30 05:28:50;;;;;;;2.25;1.90;;;18.60;45.80;;;;;;5015159;28;20447;-45
2020/12/30 05:31:16;;;;;;;2.45;1.80;;;18.50;45.80;;;;;;5015586;28;20061;-45
2020/12/30 05:33:42;;;;;;;2.17;1.75;;;18.50;45.80;;;;;;5015649;28;20033;-45
2020/12/30 05:36:08;;;;;;;2.08;1.67;;;18.50;45.80;;;;;;5015514;28;20026;-46
2020/12/30 05:38:33;;;;;;;2.30;1.60;;;18.50;45.80;;;;;;5015530;28;20120;-46
2020/12/30 05:40:59;;;;;;;2.05;1.85;;;18.50;45.80;;;;;;5015767;28;20061;-45
2020/12/30 05:43:27;;;;;;;2.70;1.92;;;18.50;45.80;;;;;;5015499;28;20026;-45
2020/12/30 05:45:54;;;;;;;2.17;1.98;;;18.50;45.80;;;;;;5015205;28;20035;-44
2020/12/30 05:48:22;;;;;;;1.70;1.60;;;18.50;45.80;;;;;;5015422;28;20033;-45
2020/12/30 05:50:55;;;;;;;2.95;2.05;;;18.50;45.80;;;;;;5015036;28;20120;-46
2020/12/30 05:53:22;;;;;;;1.88;1.75;;;18.50;45.80;;;;;;5015761;28;20045;-45
2020/12/30 05:56:06;;;;;;;1.70;1.60;;;18.50;45.80;;;;;;5015050;28;20041;-45
2020/12/30 05:58:36;;;;;;;1.80;1.70;;;18.50;45.80;;;;;;5015087;28;20040;-45
2020/12/30 06:01:27;;;;;;;1.98;1.77;;;18.50;45.80;;;;;;5015091;28;20037;-45
2020/12/30 06:03:53;;;;;;;1.90;1.80;;;18.40;45.80;;;;;;5015316;28;20033;-45
2020/12/30 06:06:21;;;;;;;2.22;1.75;;;18.40;45.80;;;;;;5015095;28;20021;-46
2020/12/30 06:08:49;;;;;;;2.00;1.80;;;18.40;45.80;;;;;;5014811;28;20411;-46
2020/12/30 06:11:23;;;;;;;1.70;1.60;;;18.40;45.80;;;;;;5015620;28;20036;-45
2020/12/30 06:13:51;;;;;;;2.47;2.10;;;18.40;45.90;;;;;;5015004;28;20359;-46
2020/12/30 06:16:22;;;;;;;2.45;2.00;;;18.40;45.80;;;;;;5015289;28;20041;-46
2020/12/30 06:18:49;;;;;;;2.42;1.70;;;18.40;45.80;;;;;;5015001;28;20029;-46
2020/12/30 06:21:18;;;;;;;3.17;2.00;;;18.40;45.80;;;;;;5015231;28;20101;-45
2020/12/30 06:23:50;;;;;;;2.33;2.13;;;18.40;45.90;;;;;;5015006;28;20026;-45
2020/12/30 06:26:18;;;;;;;3.05;1.90;;;18.40;45.90;;;;;;5015637;28;20025;-44
2020/12/30 06:28:49;;;;;;;2.33;1.92;;;18.40;45.80;;;;;;5015000;28;20014;-46
2020/12/30 06:31:15;;;;;;;2.28;2.08;;;18.30;45.80;;;;;;5014849;28;20124;-46
2020/12/30 06:33:41;;;;;;;2.22;1.73;;;18.30;45.80;;;;;;5014808;28;20022;-46
2020/12/30 06:36:06;;;;;;;2.17;1.90;;;18.30;45.80;;;;;;5015328;28;20029;-49
2020/12/30 06:38:32;;;;;;;3.85;2.00;;;18.30;45.80;;;;;;5014947;28;20069;-47
2020/12/30 06:40:59;;;;;;;1.70;1.60;;;18.30;45.80;;;;;;5015137;28;20026;-46
2020/12/30 06:43:37;;;;;;;1.70;1.48;;;18.30;45.80;;;;;;5015170;28;20113;-46
2020/12/30 06:46:03;;;;;;;2.38;1.83;;;18.30;45.80;;;;;;5014978;28;20065;-47
2020/12/30 06:48:28;;;;;;;2.53;1.50;;;18.30;45.90;;;;;;5014834;28;20560;-46
2020/12/30 06:50:54;;;;;;;2.22;1.98;;;18.30;45.90;;;;;;5014440;28;20061;-46
2020/12/30 06:53:24;;;;;;;2.10;1.90;;;18.30;45.90;;;;;;5014716;28;20136;-47
2020/12/30 06:55:50;;;;;;;2.30;1.92;;;18.30;45.90;;;;;;5014953;28;20030;-45
2020/12/30 06:58:47;;;;;;;2.65;2.05;;;18.30;45.90;;;;;;5014771;28;20019;-46
2020/12/30 07:01:20;;;;;;;2.20;2.00;;;18.30;45.80;;;;;;5014317;28;20022;-47
2020/12/30 07:03:48;;;;;;;2.30;2.00;;;18.30;45.90;;;;;;5014471;28;20041;-48
2020/12/30 07:06:31;;;;;;;1.50;1.40;;;18.20;45.90;;;;;;5014656;28;20364;-47
2020/12/30 07:08:59;;;;;;;3.83;2.08;;;18.20;45.90;;;;;;5015966;28;20025;-45
2020/12/30 07:11:45;;;;;;;2.65;2.45;;;18.20;45.90;;;;;;5017651;28;20325;-46
2020/12/30 07:14:21;;;;;;;1.60;1.50;;;18.20;45.90;;;;;;5018083;28;20014;-47
2020/12/30 07:16:58;;;;;;;2.30;1.98;;;18.20;45.90;;;;;;5018018;28;20018;-46
2020/12/30 07:19:28;;;;;;;2.08;1.60;;;18.20;46.60;;;;;;5018162;28;20026;-47
2020/12/30 07:22:06;;;;;;;1.70;1.60;;;18.20;45.90;;;;;;5017545;28;20058;-45
2020/12/30 07:24:36;;;;;;;2.30;2.10;;;18.20;45.90;;;;;;5017730;28;20049;-46
2020/12/30 07:27:04;;;;;;;1.85;1.52;;;18.20;46.00;;;;;;5017386;28;20496;-47
2020/12/30 07:29:30;;;;;;;1.70;1.42;;;18.20;46.00;;;;;;5017906;28;20038;-46
2020/12/30 07:31:59;;;;;;;2.88;1.85;;;18.20;46.00;;;;;;5017627;28;20040;-46
2020/12/30 07:34:27;;;;;;;1.92;1.70;;;18.20;46.00;;;;;;5017320;28;20356;-46
2020/12/30 07:36:53;;;;;;;1.70;1.60;;;18.10;45.90;;;;;;5017669;28;20037;-47
2020/12/30 07:39:34;;;;;;;2.20;1.50;;;18.10;45.90;;;;;;5017555;28;20087;-45
2020/12/30 07:42:01;;;;;;;2.53;1.70;;;18.10;45.90;;;;;;5017698;28;20441;-46
2020/12/30 07:44:26;;;;;;;1.70;1.60;;;18.10;46.00;;;;;;5017634;28;20095;-44
2020/12/30 07:46:59;;;;;;;2.42;1.73;;;18.10;45.90;;;;;;5017558;28;20030;-45
2020/12/30 07:49:25;;;;;;;1.58;1.45;;;18.10;46.00;;;;;;5017445;28;20033;-45
2020/12/30 07:51:53;;;;;;;1.88;1.77;;;18.10;46.00;;;;;;5017193;28;20040;-44
2020/12/30 07:54:21;;;;;;;2.10;1.83;;;18.10;46.00;;;;;;5017004;28;20082;-44
2020/12/30 07:56:47;;;;;;;3.50;3.20;;;18.10;46.60;;;;;;5017462;28;20434;-46
2020/12/30 07:59:23;;;;;;;2.45;1.92;;;18.10;46.30;;;;;;5017026;28;20101;-48
2020/12/30 08:01:59;;;;;;;2.63;2.15;;;18.10;46.20;;;;;;5016916;28;20026;-44
2020/12/30 08:04:26;;;;;;;2.40;1.65;;;18.10;46.20;;;;;;5017110;28;20084;-44
2020/12/30 08:06:52;;;;;;;1.60;1.50;;;18.10;46.30;;;;;;5017064;28;20041;-44
2020/12/30 08:09:18;;;;;;;2.78;1.70;;;18.10;46.30;;;;;;5016978;28;20069;-47
2020/12/30 08:11:51;;;;;;;2.20;1.52;;;18.10;46.30;;;;;;5016895;28;20061;-46
2020/12/30 08:14:18;;;;;;;1.88;1.42;;;18.10;46.40;;;;;;5016427;28;20017;-45
2020/12/30 08:16:53;;;;;;;2.30;1.40;;;18.10;46.40;;;;;;5016825;28;20084;-44
2020/12/30 08:19:36;;;;;;;2.55;1.80;;;18.10;46.40;;;;;;5016263;28;20033;-44
2020/12/30 08:22:14;;;;;;;2.00;1.43;;;18.20;46.50;;;;;;5016394;28;20044;-44
2020/12/30 08:24:46;;;;;;;2.45;1.27;;;18.20;46.60;;;;;;5016839;28;20036;-43
2020/12/30 08:27:18;;;;;;;6.68;2.03;;;18.30;46.70;;;;;;4999158;28;20405;-44
2020/12/30 08:29:45;;;;;;;3.25;1.73;;;18.30;46.80;;;;;;5016526;28;20068;-45
2020/12/30 08:32:55;;;;;;;2.92;1.42;;;18.30;46.80;;;;;;5016543;28;20397;-46
2020/12/30 08:35:33;;;;;;;1.60;1.35;;;18.40;46.70;;;;;;5015745;28;20143;-46
2020/12/30 08:38:17;;;;;;;3.13;1.30;;;18.50;46.80;;;;;;5016166;28;20038;-45
2020/12/30 08:40:47;;;;;;;1.75;1.45;;;18.50;46.70;;;;;;5016089;28;20018;-45
2020/12/30 08:43:40;;;;;;;2.78;1.55;;;18.60;46.80;;;;;;5016291;28;20457;-47
2020/12/30 08:46:10;;;;;;;3.28;1.48;;;18.60;46.90;;;;;;5015697;28;20376;-45
2020/12/30 08:48:45;;;;;;;3.63;1.77;;;18.60;47.00;;;;;;5015354;28;20022;-46
2020/12/30 08:51:24;;;;;;;3.25;2.28;;;18.70;47.30;;;;;;5016124;28;20096;-44
2020/12/30 08:53:49;;;;;;;3.10;1.80;;;18.70;47.10;;;;;;5016600;28;20064;-48
2020/12/30 08:56:18;;;;;;;2.13;1.20;;;18.70;47.10;;;;;;5015852;28;20116;-45
2020/12/30 08:58:54;;;;;;;3.15;1.35;;;18.70;47.10;;;;;;5016217;28;20083;-51
2020/12/30 09:01:21;;;;;;;2.00;1.17;;;18.70;47.10;;;;;;5016113;28;20026;-44
2020/12/30 09:03:46;;;;;;;3.63;1.50;;;18.80;47.10;;;;;;5015877;28;20021;-47
2020/12/30 09:06:24;;;;;;;2.90;1.70;;;18.80;47.10;;;;;;5016331;28;20040;-48
2020/12/30 09:08:50;;;;;;;1.45;1.10;;;18.80;47.10;;;;;;5015885;28;20022;-46
2020/12/30 09:11:18;;;;;;;1.67;1.20;;;18.80;47.10;;;;;;5015647;28;20026;-45
2020/12/30 09:13:44;;;;;;;1.45;1.27;;;18.80;47.10;;;;;;5015853;28;20463;-46
2020/12/30 09:16:10;;;;;;;3.00;1.35;;;18.90;47.10;;;;;;5016077;28;20022;-45
2020/12/30 09:18:36;;;;;;;2.63;1.40;;;18.90;47.10;;;;;;5015979;28;20029;-51
2020/12/30 09:21:03;;;;;;;1.75;1.30;;;18.90;47.10;;;;;;5015730;28;20084;-47
2020/12/30 09:23:29;;;;;;;4.18;1.55;;;18.90;47.10;;;;;;5015646;28;20032;-50
2020/12/30 09:25:56;;;;;;;1.65;1.42;;;18.90;47.00;;;;;;5015805;28;20026;-46
2020/12/30 09:28:26;;;;;;;1.92;1.77;;;18.90;47.00;;;;;;5016039;28;20021;-44
2020/12/30 09:30:53;;;;;;;3.60;1.90;;;18.90;47.40;;;;;;5015220;28;20052;-48
2020/12/30 09:33:25;;;;;;;3.15;2.22;;;18.90;48.80;;;;;;5015434;28;20106;-51
2020/12/30 09:35:52;;;;;;;4.70;1.90;;;18.90;49.80;;;;;;5015063;28;20322;-50
2020/12/30 09:38:18;;;;;;;7.03;2.08;;;18.90;49.70;;;;;;5015393;28;20037;-46
2020/12/30 09:40:45;;;;;;;4.38;2.53;;;18.90;49.90;;;;;;5015812;28;20026;-53
2020/12/30 09:43:18;;;;;;;4.85;2.70;;;19.00;50.40;;;;;;5015535;28;20112;-45
2020/12/30 09:45:45;;;;;;;6.00;2.80;;;19.00;50.30;;;;;;5015415;28;20026;-47
2020/12/30 09:48:14;;;;;;;4.13;3.08;;;19.00;50.40;;;;;;5015262;28;20022;-47
2020/12/30 09:50:43;;;;;;;5.32;2.90;;;19.00;50.50;;;;;;5015144;28;20034;-46
2020/12/30 09:53:09;;;;;;;4.15;2.67;;;19.00;50.40;;;;;;5015595;28;20053;-47
2020/12/30 09:55:35;;;;;;;8.00;2.80;;;19.00;50.30;;;;;;5015196;28;20034;-47
2020/12/30 09:58:01;;;;;;;8.43;4.50;;;19.00;50.50;;;;;;5014878;28;20054;-46
2020/12/30 10:00:26;;;;;;;16.15;5.03;;;19.00;48.40;;;;;;5014733;28;20022;-48
2020/12/30 10:02:53;;;;;;;13.50;4.68;;;18.90;48.10;;;;;;5015156;28;20033;-48
2020/12/30 10:05:18;;;;;;;6.25;3.70;;;18.80;48.70;;;;;;5014843;28;20474;-48
2020/12/30 10:07:44;;;;;;;3.45;2.28;;;18.80;49.00;;;;;;5015244;28;20029;-47
2020/12/30 10:10:10;;;;;;;2.88;2.20;;;18.80;49.30;;;;;;5014938;28;20034;-49
2020/12/30 10:12:38;;;;;;;7.00;2.80;;;18.90;49.70;;;;;;5014963;28;20368;-47
2020/12/30 10:15:05;;;;;;;7.63;2.03;;;19.00;49.80;;;;;;5015257;28;20029;-51
2020/12/30 10:17:31;;;;;;;2.55;1.90;;;19.00;49.80;;;;;;5015459;28;20357;-46
2020/12/30 10:19:56;;;;;;;2.22;1.40;;;19.10;49.80;;;;;;5014809;28;20036;-47
2020/12/30 10:22:21;;;;;;;4.40;1.48;;;19.20;49.80;;;;;;5014782;28;20034;-49
2020/12/30 10:24:48;;;;;;;2.70;1.88;;;19.20;49.80;;;;;;5015029;28;20030;-50
2020/12/30 10:27:17;;;;;;;2.03;1.80;;;19.20;49.70;;;;;;5014870;28;20114;-52
2020/12/30 10:29:43;;;;;;;8.38;1.50;;;19.30;49.70;;;;;;5014866;28;20057;-52
2020/12/30 10:32:09;;;;;;;4.28;2.40;;;19.30;49.60;;;;;;5014828;28;20440;-44
2020/12/30 10:34:35;;;;;;;4.68;2.78;;;19.30;49.40;;;;;;5014749;28;20030;-48
2020/12/30 10:37:04;;;;;;;2.85;2.10;;;19.30;48.70;;;;;;5014373;28;20049;-52
2020/12/30 10:39:30;;;;;;;3.95;2.50;;;19.40;48.50;;;;;;5014307;28;20105;-50
2020/12/30 10:41:56;;;;;;;2.72;2.38;;;19.30;48.10;;;;;;5014449;28;20114;-50
2020/12/30 10:44:22;;;;;;;5.75;2.58;;;19.30;48.00;;;;;;5018988;28;20029;-48
2020/12/30 10:46:48;;;;;;;2.17;1.98;;;19.40;48.10;;;;;;5018580;28;20053;-46
2020/12/30 10:49:14;;;;;;;3.28;1.85;;;19.40;48.10;;;;;;5018613;28;20069;-46
2020/12/30 10:51:40;;;;;;;2.33;1.70;;;19.40;48.70;;;;;;5018806;28;20044;-46
2020/12/30 10:54:06;;;;;;;9.63;1.92;;;19.40;48.00;;;;;;5017863;28;20057;-45
2020/12/30 10:56:31;;;;;;;1.80;1.50;;;19.50;48.00;;;;;;5018339;28;20104;-45
2020/12/30 10:58:57;;;;;;;2.22;1.63;;;19.50;48.00;;;;;;5018258;28;20057;-45
2020/12/30 11:01:22;;;;;;;2.65;1.80;;;19.50;48.00;;;;;;5018289;28;20030;-46
2020/12/30 11:03:48;;;;;;;1.50;1.30;;;19.50;48.00;;;;;;5018366;28;20403;-46
2020/12/30 11:06:13;;;;;;;3.20;1.48;;;19.50;47.90;;;;;;5018226;28;20022;-46
2020/12/30 11:08:39;;;;;;;2.35;1.48;;;19.60;48.00;;;;;;5017860;28;20089;-46
2020/12/30 11:11:05;;;;;;;2.50;1.83;;;19.60;47.90;;;;;;5017634;28;20041;-45
2020/12/30 11:13:31;;;;;;;3.45;1.63;;;19.60;47.90;;;;;;5018093;28;20022;-46
2020/12/30 11:15:57;;;;;;;2.13;1.50;;;19.60;48.50;;;;;;5017705;28;20519;-48
2020/12/30 11:18:22;;;;;;;1.50;1.23;;;19.60;47.80;;;;;;5018196;28;20101;-46
2020/12/30 11:20:49;;;;;;;2.10;1.35;;;19.60;47.80;;;;;;5017615;28;20064;-47
2020/12/30 11:23:15;;;;;;;2.55;1.38;;;19.60;47.80;;;;;;5017578;28;20026;-49
2020/12/30 11:25:44;;;;;;;1.27;0.98;;;19.70;47.80;;;;;;5017929;28;20125;-46
2020/12/30 11:28:10;;;;;;;1.27;0.82;;;19.70;47.80;;;;;;5017832;28;20026;-46
2020/12/30 11:30:36;;;;;;;2.08;1.30;;;19.70;47.80;;;;;;5017880;28;20042;-46
2020/12/30 11:33:02;;;;;;;2.88;1.45;;;19.70;47.70;;;;;;5017709;28;20026;-46
2020/12/30 11:35:28;;;;;;;2.90;1.40;;;19.70;47.70;;;;;;5018062;28;20026;-46
2020/12/30 11:37:54;;;;;;;1.38;1.15;;;19.70;47.70;;;;;;5017536;28;20026;-46
2020/12/30 11:40:20;;;;;;;1.27;1.10;;;19.70;47.70;;;;;;5017387;28;20084;-47
2020/12/30 11:42:46;;;;;;;5.13;1.20;;;19.70;47.70;;;;;;5017709;28;20032;-47
2020/12/30 11:45:11;;;;;;;1.85;1.02;;;19.80;47.70;;;;;;5017445;28;20026;-46
2020/12/30 11:47:37;;;;;;;1.13;0.90;;;19.80;47.70;;;;;;5017135;28;20160;-47
2020/12/30 11:50:04;;;;;;;1.27;1.00;;;19.80;47.70;;;;;;5017401;28;20099;-48
2020/12/30 11:52:30;;;;;;;0.85;0.85;;;19.80;47.60;;;;;;5016728;28;20352;-46
2020/12/30 11:54:55;;;;;;;1.67;1.10;;;19.80;47.60;;;;;;5017023;28;20101;-46
2020/12/30 11:57:21;;;;;;;1.50;1.00;;;19.80;47.60;;;;;;5017497;28;20029;-45
2020/12/30 11:59:46;;;;;;;1.08;0.88;;;19.80;47.50;;;;;;5017202;28;20026;-45
2020/12/30 12:02:12;;;;;;;1.63;1.15;;;19.80;47.50;;;;;;5017295;28;20341;-46
2020/12/30 12:04:37;;;;;;;2.42;1.35;;;19.90;47.60;;;;;;5017236;28;20026;-46
2020/12/30 12:07:03;;;;;;;1.42;1.00;;;19.80;47.50;;;;;;5016955;28;20025;-49
2020/12/30 12:09:29;;;;;;;0.77;0.77;;;19.90;47.50;;;;;;5016584;28;20368;-46
2020/12/30 12:11:55;;;;;;;1.65;1.00;;;19.90;47.50;;;;;;5016993;28;20026;-49
2020/12/30 12:14:21;;;;;;;1.13;0.80;;;19.90;47.50;;;;;;5017605;28;20030;-46
2020/12/30 12:16:51;;;;;;;1.10;0.98;;;19.90;47.50;;;;;;5016893;28;20033;-47
2020/12/30 12:19:17;;;;;;;1.13;0.80;;;19.90;47.50;;;;;;5017014;28;20056;-47
2020/12/30 12:21:43;;;;;;;1.92;1.00;;;19.90;47.50;;;;;;5016500;28;20440;-47
2020/12/30 12:24:09;;;;;;;1.17;1.00;;;19.90;47.40;;;;;;5016746;28;20029;-46
2020/12/30 12:26:35;;;;;;;2.35;0.93;;;19.90;47.40;;;;;;5016354;28;20014;-49
2020/12/30 12:29:16;;;;;;;1.08;0.95;;;19.90;47.40;;;;;;5016926;28;20030;-47
2020/12/30 12:31:42;;;;;;;1.35;1.00;;;19.90;47.40;;;;;;5016786;28;20036;-48
2020/12/30 12:34:07;;;;;;;1.20;1.10;;;20.00;47.40;;;;;;5016628;28;20030;-47
2020/12/30 12:36:33;;;;;;;0.98;0.90;;;19.90;47.30;;;;;;5016203;28;20084;-46
2020/12/30 12:38:59;;;;;;;1.05;0.80;;;20.00;47.30;;;;;;5016461;28;20317;-48
2020/12/30 12:41:25;;;;;;;1.50;0.95;;;20.00;47.30;;;;;;5016699;28;20022;-50
2020/12/30 12:43:50;;;;;;;0.80;0.80;;;20.00;47.30;;;;;;5016506;28;20092;-49
2020/12/30 12:46:16;;;;;;;0.98;0.88;;;20.00;47.30;;;;;;5016014;28;20021;-47
2020/12/30 12:48:42;;;;;;;2.17;1.00;;;20.00;47.30;;;;;;5016307;28;20025;-47
2020/12/30 12:51:08;;;;;;;1.48;0.80;;;20.00;47.30;;;;;;5015678;28;20034;-46